Latest Weather Observations for Kalumburu

IDD60801

Issued at 12:05 pm CST Wednesday 26 November 2014 (issued every 30 minutes, with the page automatically refreshed every 10 minutes)

About weather observations | Map of weather stations | Latest weather observations for NT | Other Formats
Station Details ID: 001019 Name: KALUMBURU Lat: -14.30 Lon: 126.65 Height: 23.0 m
Data from the previous 72 hours. | See also: Recent months at Kalumburu
Date/Time
CST
Temp
°C
App
Temp
°C
Dew
Point
Rel
Hum
%
Delta-T
°C
Wind Press
QNH
hPa
Press
MSL
hPa
Rain
since 9 am
mm
Dir
 
Spd
km/h
Gust
km/h
Spd
kts
Gust
kts
26/12:00pm 32.3 35.1 20.5 49 7.9 WNW 6 9 3 5 1007.6 1007.4 0.0
26/11:30am 32.2 36.6 21.4 53 7.3 CALM 0 0 0 0 1007.8 1007.6 0.0
26/11:00am 31.6 34.5 19.9 50 7.7 SE 4 9 2 5 1008.2 1008.0 0.0
26/10:30am 30.7 33.0 20.6 54 6.7 ESE 9 19 5 10 1008.7 1008.5 17.0
26/10:00am 29.6 32.5 21.8 63 5.3 SSE 9 17 5 9 1009.2 1009.0 17.0
26/09:30am 28.9 30.6 20.9 62 5.3 SE 13 22 7 12 1009.3 1009.1 17.0
26/09:00am 28.9 29.4 20.9 62 5.3 SSE 19 30 10 16 1009.2 1009.0 17.0
26/08:30am 28.7 31.0 22.7 70 4.1 SSE 15 28 8 15 1009.2 1009.0 17.0
26/08:00am 27.8 29.7 22.1 71 3.8 SE 15 28 8 15 1009.3 1009.1 17.0
26/07:30am 27.2 31.3 23.2 79 2.7 S 7 11 4 6 1009.1 1008.9 17.0
26/07:00am 25.9 30.7 22.8 83 2.1 SSE 2 7 1 4 1008.5 1008.3 17.0
26/06:30am 25.8 30.6 22.1 80 2.5 CALM 0 0 0 0 1007.9 1007.7 17.0
26/06:00am 26.1 30.4 22.0 78 2.7 SE 2 9 1 5 1008.0 1007.8 17.0
26/05:30am 26.6 30.0 22.0 76 3.1 SE 7 11 4 6 1008.0 1007.8 17.0
26/05:00am 26.9 29.9 21.9 74 3.3 E 9 19 5 10 1007.5 1007.3 17.0
26/04:30am 26.5 28.8 22.1 77 3.0 ESE 13 20 7 11 1007.3 1007.1 17.0
26/04:00am 25.7 29.3 22.4 82 2.2 ESE 7 9 4 5 1006.8 1006.6 17.0
26/03:30am 26.1 29.9 22.4 80 2.5 E 6 9 3 5 1005.9 1005.7 17.0
26/03:00am 26.1 30.8 23.4 85 1.8 SE 4 7 2 4 1005.9 1005.7 17.0
26/02:30am 26.4 31.5 23.3 83 2.1 E 2 6 1 3 1005.8 1005.6 17.0
26/02:00am 26.6 30.9 23.3 82 2.3 SE 6 7 3 4 1006.1 1005.9 17.0
26/01:30am 26.8 31.0 23.5 82 2.3 S 7 11 4 6 1006.3 1006.1 17.0
26/01:00am 26.7 32.2 23.4 82 2.3 CALM 0 0 0 0 1006.7 1006.5 17.0
26/12:30am 26.7 31.1 23.4 82 2.3 SSE 6 9 3 5 1007.4 1007.2 17.0
26/12:00am 26.6 31.1 22.9 80 2.5 SSE 4 6 2 3 1007.5 1007.3 17.0
 
Date/Time
CST
Temp
°C
App
Temp
°C
Dew
Point
Rel
Hum
%
Delta-T
°C
Wind Press
QNH
hPa
Press
MSL
hPa
Rain
since 9 am
mm
Dir
 
Spd
km/h
Gust
km/h
Spd
kts
Gust
kts
25/11:30pm 26.5 30.6 23.0 81 2.4 SSW 6 7 3 4 1007.8 1007.6 17.0
25/11:00pm 26.6 32.0 23.3 82 2.3 CALM 0 0 0 0 1007.3 1007.1 17.0
25/10:30pm 26.8 32.5 23.7 83 2.1 CALM 0 0 0 0 1007.3 1007.1 17.0
25/10:00pm 26.9 31.6 23.4 81 2.4 SW 4 7 2 4 1007.1 1006.9 17.0
25/09:30pm 26.9 31.6 23.4 81 2.4 N 4 6 2 3 1006.7 1006.5 17.0
25/09:00pm 27.6 31.3 23.2 77 3.0 N 9 11 5 6 1006.6 1006.4 17.0
25/08:30pm 27.5 31.2 23.3 78 2.9 NW 9 13 5 7 1006.4 1006.2 17.0
25/08:00pm 26.7 32.2 23.4 82 2.3 CALM 0 0 0 0 1007.3 1007.1 17.0
25/07:30pm 26.8 31.6 22.8 79 2.7 N 2 6 1 3 1006.6 1006.4 17.0
25/07:00pm 27.0 30.1 22.2 75 3.2 SSE 9 15 5 8 1007.3 1007.1 17.0
25/06:30pm 27.0 29.8 23.0 79 2.7 S 13 20 7 11 1007.8 1007.6 17.0
25/06:00pm 26.6 31.0 23.5 83 2.1 SSW 6 7 3 4 1007.2 1007.0 17.0
25/05:30pm 26.6 30.6 23.1 81 2.4 NE 7 11 4 6 1006.5 1006.3 17.0
25/05:00pm 26.3 27.7 22.6 80 2.5 N 19 22 10 12 1006.3 1006.1 17.0
25/04:30pm 25.0 27.6 21.9 83 2.1 NE 11 19 6 10 1005.4 1005.2 16.8
25/04:00pm 26.5 27.5 22.1 77 3.0 ENE 20 35 11 19 1007.2 1007.0 4.2
25/03:30pm 30.4 32.6 21.8 60 5.8 NNE 13 17 7 9 1005.6 1005.4 0.0
25/03:00pm 31.7 31.9 22.1 56 6.5 N 24 35 13 19 1005.4 1005.2 0.0
25/02:30pm 35.8 36.5 18.8 36 11.2 WSW 13 28 7 15 1005.4 1005.2 0.0
25/02:00pm 37.2 38.8 19.2 35 12.0 S 9 20 5 11 1005.5 1005.3 0.0
25/01:30pm 37.9 39.4 18.8 32 12.7 S 9 15 5 8 1006.3 1006.1 0.0
25/01:00pm 37.2 38.5 19.2 35 12.0 S 11 15 6 8 1006.9 1006.7 0.0
25/12:30pm 37.5 38.3 19.0 34 12.3 S 13 20 7 11 1007.6 1007.4 0.0
25/12:00pm 37.0 37.8 18.1 33 12.4 SSE 11 17 6 9 1008.1 1007.9 0.0
25/11:30am 35.8 36.7 17.5 34 11.9 SSW 9 17 5 9 1008.5 1008.3 0.0
25/11:00am 35.4 37.3 18.5 37 11.1 SSW 6 13 3 7 1009.0 1008.8 0.0
25/10:30am 34.4 36.6 20.4 44 9.4 SSW 9 20 5 11 1009.2 1009.0 0.0
25/10:00am 33.0 36.2 22.4 53 7.3 SW 9 17 5 9 1009.5 1009.3 0.0
25/09:30am 31.9 35.5 23.7 62 5.7 S 11 15 6 8 1009.5 1009.3 0.0
25/09:00am 31.1 35.8 25.0 70 4.3 SW 9 17 5 9 1009.5 1009.3 0.0
25/08:30am 29.9 36.0 25.0 75 3.4 SSE 2 6 1 3 1009.4 1009.2 0.0
25/08:00am 28.8 35.5 25.4 82 2.4 CALM 0 0 0 0 1009.4 1009.2 0.0
25/07:30am 27.8 34.3 25.0 85 2.0 CALM 0 0 0 0 1008.8 1008.6 0.0
25/07:00am 27.1 33.4 24.7 87 1.7 CALM 0 0 0 0 1008.5 1008.3 0.0
25/06:30am 26.9 33.0 24.4 86 1.7 CALM 0 0 0 0 1008.0 1007.8 0.0
25/06:00am 26.5 32.1 23.6 84 2.0 CALM 0 0 0 0 1007.9 1007.7 0.0
25/05:30am 27.5 32.3 24.1 82 2.4 W 6 7 3 4 1007.6 1007.4 0.0
25/05:00am 27.8 33.4 24.2 81 2.5 NW 2 7 1 4 1007.5 1007.3 0.0
25/04:30am 27.8 33.6 24.6 83 2.2 W 2 9 1 5 1007.8 1007.6 0.0
25/04:00am 28.1 33.0 24.3 80 2.6 NNW 6 11 3 6 1007.8 1007.6 0.0
25/03:30am 28.2 34.2 24.2 79 2.8 CALM 0 0 0 0 1007.8 1007.6 0.0
25/03:00am 28.8 33.3 24.6 78 2.9 N 9 11 5 6 1007.8 1007.6 0.0
25/02:30am 28.8 33.3 24.6 78 2.9 N 9 13 5 7 1008.0 1007.8 0.0
25/02:00am 29.0 32.9 24.3 76 3.3 N 11 15 6 8 1008.3 1008.1 0.0
25/01:30am 29.1 33.2 24.0 74 3.5 N 9 15 5 8 1008.8 1008.6 0.0
25/01:00am 29.4 33.0 23.1 69 4.3 NW 9 13 5 7 1009.1 1008.9 0.0
25/12:30am 29.6 32.4 22.3 65 5.0 NW 11 15 6 8 1009.5 1009.3 0.0
25/12:00am 29.7 32.9 22.4 65 5.0 NW 9 13 5 7 1009.7 1009.5 0.0
 
Date/Time
CST
Temp
°C
App
Temp
°C
Dew
Point
Rel
Hum
%
Delta-T
°C
Wind Press
QNH
hPa
Press
MSL
hPa
Rain
since 9 am
mm
Dir
 
Spd
km/h
Gust
km/h
Spd
kts
Gust
kts
24/11:30pm 29.9 33.0 23.6 69 4.4 NNW 13 17 7 9 1009.7 1009.5 0.0
24/11:00pm 30.1 33.7 23.8 69 4.4 NNW 11 15 6 8 1009.8 1009.6 0.0
24/10:30pm 30.2 33.5 22.6 63 5.2 N 9 13 5 7 1009.7 1009.5 0.0
24/10:00pm 30.6 32.8 21.1 57 6.4 N 11 15 6 8 1009.2 1009.0 0.0
24/09:30pm 30.4 32.1 18.5 49 7.7 N 7 9 4 5 1008.9 1008.7 0.0
24/09:00pm 31.4 31.9 16.6 41 9.3 N 9 13 5 7 1008.7 1008.5 0.0
24/08:30pm 31.9 32.3 16.2 38 9.9 N 9 13 5 7 1008.3 1008.1 0.0
24/08:00pm 32.4 31.4 16.7 39 9.9 N 17 22 9 12 1007.7 1007.5 0.0
24/07:30pm 32.8 31.9 17.8 40 9.7 N 19 26 10 14 1007.1 1006.9 0.0
24/07:00pm 33.3 33.3 19.0 42 9.4 N 17 24 9 13 1006.6 1006.4 0.0
24/06:30pm 33.8 33.8 19.8 43 9.3 N 19 26 10 14 1006.2 1006.0 0.0
24/06:00pm 34.3 35.3 21.0 45 9.0 N 17 26 9 14 1006.2 1006.0 0.0
24/05:30pm 34.8 34.9 20.0 42 9.9 N 19 26 10 14 1006.1 1005.9 0.0
24/05:00pm 34.9 34.7 19.7 41 10.1 N 20 28 11 15 1005.9 1005.7 0.0
24/04:30pm 35.5 35.9 20.6 41 10.1 NNW 19 26 10 14 1005.8 1005.6 0.0
24/04:00pm 36.3 37.1 21.7 42 10.0 N 20 26 11 14 1006.0 1005.8 0.0
24/03:30pm 36.0 36.3 20.3 40 10.6 NNW 19 24 10 13 1006.2 1006.0 0.0
24/03:00pm 36.3 37.3 22.1 43 9.8 NW 20 28 11 15 1006.4 1006.2 0.0
24/02:30pm 37.2 38.0 21.3 39 10.9 WNW 19 30 10 16 1006.9 1006.7 0.0
24/02:00pm 37.8 40.5 20.6 36 11.6 SSE 7 11 4 6 1007.7 1007.5 0.0
24/01:30pm 37.3 39.3 18.8 33 12.2 W 6 9 3 5 1008.2 1008.0 0.0
24/01:00pm 36.6 38.8 19.5 36 11.4 S 7 13 4 7 1008.7 1008.5 0.0
24/12:30pm 36.1 37.3 19.9 38 10.8 S 13 24 7 13 1009.1 1008.9 0.0
24/12:00pm 35.5 37.8 20.6 41 10.0 NW 9 17 5 9 1009.6 1009.4 0.0
24/11:30am 34.8 37.4 20.4 43 9.7 S 7 13 4 7 1010.1 1009.9 0.0
24/11:00am 34.1 36.7 21.9 49 8.3 S 11 19 6 10 1010.5 1010.3 0.0
24/10:30am 33.1 36.5 23.4 56 6.7 S 11 19 6 10 1010.8 1010.6 0.0
24/10:00am 32.1 35.7 23.1 59 6.2 S 9 17 5 9 1011.2 1011.0 0.0
24/09:30am 31.2 35.1 23.6 64 5.3 SSE 9 13 5 7 1011.1 1010.9 0.0
24/09:00am 30.0 33.8 23.4 67 4.5 S 9 15 5 8 1011.2 1011.0 0.0
24/08:30am 29.0 32.3 22.5 68 4.4 S 9 15 5 8 1011.2 1011.0 0.0
24/08:00am 28.1 31.9 22.8 73 3.6 S 7 9 4 5 1011.0 1010.8 0.0
24/07:30am 27.0 32.8 23.9 83 2.1 CALM 0 0 0 0 1010.7 1010.5 0.0
24/07:00am 24.5 29.6 22.6 89 1.3 CALM 0 0 0 0 1010.4 1010.2 0.0
24/06:30am 24.3 29.2 22.4 89 1.3 CALM 0 0 0 0 1010.0 1009.8 0.0
24/06:00am 24.5 29.6 22.6 89 1.3 CALM 0 0 0 0 1009.9 1009.7 0.0
24/05:30am 24.7 29.4 22.0 85 1.8 CALM 0 0 0 0 1009.6 1009.4 0.0
24/05:00am 25.4 29.4 22.1 82 2.2 S 4 7 2 4 1009.5 1009.3 0.0
24/04:30am 25.6 29.5 22.9 85 1.8 S 7 11 4 6 1009.4 1009.2 0.0
24/04:00am 24.8 29.1 22.7 88 1.4 SSW 4 7 2 4 1009.4 1009.2 0.0
24/03:30am 24.4 29.0 22.5 89 1.3 SSE 2 6 1 3 1009.5 1009.3 0.0
24/03:00am 24.5 29.4 22.4 88 1.4 CALM 0 0 0 0 1009.4 1009.2 0.0
24/02:30am 24.5 29.3 22.2 87 1.5 CALM 0 0 0 0 1009.4 1009.2 0.0
24/02:00am 24.7 29.3 22.4 87 1.5 S 2 6 1 3 1009.8 1009.6 0.0
24/01:30am 25.1 30.2 22.6 86 1.7 CALM 0 0 0 0 1010.1 1009.9 0.0
24/01:00am 25.3 30.4 22.6 85 1.8 CALM 0 0 0 0 1010.2 1010.0 0.0
24/12:30am 25.4 30.4 22.5 84 2.0 CALM 0 0 0 0 1010.7 1010.5 0.0
24/12:00am 25.6 30.5 22.3 82 2.2 CALM 0 0 0 0 1011.1 1010.9 0.0
 
Date/Time
CST
Temp
°C
App
Temp
°C
Dew
Point
Rel
Hum
%
Delta-T
°C
Wind Press
QNH
hPa
Press
MSL
hPa
Rain
since 9 am
mm
Dir
 
Spd
km/h
Gust
km/h
Spd
kts
Gust
kts
23/11:30pm 26.2 31.1 22.3 79 2.6 CALM 0 2 0 1 1011.2 1011.0 0.0
23/11:00pm 26.9 30.3 22.7 78 2.8 S 9 15 5 8 1011.1 1010.9 0.0
23/10:30pm 27.3 30.7 22.7 76 3.1 SSW 9 13 5 7 1011.2 1011.0 0.0
23/10:00pm 26.7 31.5 22.1 76 3.1 CALM 0 0 0 0 1010.8 1010.6 0.0
23/09:30pm 26.8 30.8 22.0 75 3.2 ENE 4 7 2 4 1010.2 1010.0 0.0
23/09:00pm 27.4 31.0 22.1 73 3.6 SSE 6 7 3 4 1010.0 1009.8 0.0
23/08:30pm 27.8 30.9 22.1 71 3.8 SSW 9 13 5 7 1009.6 1009.4 0.0
23/08:00pm 28.1 31.3 21.6 68 4.4 S 7 11 4 6 1009.1 1008.9 0.0
23/07:30pm 30.3 33.3 21.9 60 5.7 NW 9 17 5 9 1008.8 1008.6 0.0
23/07:00pm 31.2 34.2 21.9 57 6.3 N 9 15 5 8 1008.4 1008.2 0.0
23/06:30pm 31.6 33.3 21.7 55 6.7 N 15 22 8 12 1007.7 1007.5 0.0
23/06:00pm 31.7 33.3 21.5 54 6.9 N 15 19 8 10 1007.8 1007.6 0.0
23/05:30pm 32.2 33.6 21.1 52 7.5 NNW 15 20 8 11 1007.3 1007.1 0.0
23/05:00pm 33.1 34.5 20.3 47 8.5 NNW 13 20 7 11 1007.5 1007.3 0.0
23/04:30pm 33.1 34.3 20.6 47 8.4 NNW 15 20 8 11 1007.4 1007.2 0.0
23/04:00pm 33.5 35.1 19.9 44 9.0 ENE 11 19 6 10 1007.4 1007.2 0.0
23/03:30pm 34.9 35.6 22.2 47 8.7 N 22 35 12 19 1007.6 1007.4 0.0
23/03:00pm 35.4 35.4 20.9 42 9.8 N 22 30 12 16 1007.2 1007.0 0.0
23/02:30pm 35.6 36.4 21.8 44 9.5 NNW 20 30 11 16 1007.6 1007.4 0.0
23/02:00pm 36.5 37.8 22.3 44 9.8 NNW 19 28 10 15 1008.1 1007.9 0.0

Other Formats:

Comma delimited format used in spreadsheet applications
http://www.bom.gov.au/fwo/IDD60801/IDD60801.94100.axf

JavaScript Object Notation format (JSON) in row-major order
http://www.bom.gov.au/fwo/IDD60801/IDD60801.94100.json